sensor_id;sensor_type;location;lat;lon;timestamp;P1;durP1;ratioP1;P2;durP2;ratioP2
38683;SDS011;24910;53.248;-6.134;2022-10-31T00:01:43;20.92;;;3.75;;
38683;SDS011;24910;53.248;-6.134;2022-10-31T00:04:13;25.58;;;3.25;;
38683;SDS011;24910;53.248;-6.134;2022-10-31T00:06:42;24.67;;;3.50;;
38683;SDS011;24910;53.248;-6.134;2022-10-31T00:09:12;18.33;;;2.97;;
38683;SDS011;24910;53.248;-6.134;2022-10-31T00:11:41;20.95;;;2.92;;
38683;SDS011;24910;53.248;-6.134;2022-10-31T00:14:10;25.65;;;3.80;;
38683;SDS011;24910;53.248;-6.134;2022-10-31T00:16:39;26.50;;;3.67;;
38683;SDS011;24910;53.248;-6.134;2022-10-31T00:19:08;22.73;;;3.22;;
38683;SDS011;24910;53.248;-6.134;2022-10-31T00:21:37;19.48;;;3.03;;
38683;SDS011;24910;53.248;-6.134;2022-10-31T00:24:08;20.45;;;3.17;;
38683;SDS011;24910;53.248;-6.134;2022-10-31T00:26:37;24.57;;;3.13;;
38683;SDS011;24910;53.248;-6.134;2022-10-31T00:29:06;21.08;;;3.13;;
38683;SDS011;24910;53.248;-6.134;2022-10-31T00:31:36;17.58;;;2.75;;
38683;SDS011;24910;53.248;-6.134;2022-10-31T00:34:05;23.20;;;3.30;;
38683;SDS011;24910;53.248;-6.134;2022-10-31T00:36:35;19.08;;;3.22;;
38683;SDS011;24910;53.248;-6.134;2022-10-31T00:39:04;23.02;;;3.17;;
38683;SDS011;24910;53.248;-6.134;2022-10-31T00:41:34;18.50;;;2.75;;
38683;SDS011;24910;53.248;-6.134;2022-10-31T00:44:09;24.42;;;3.42;;
38683;SDS011;24910;53.248;-6.134;2022-10-31T00:46:38;33.55;;;3.90;;
38683;SDS011;24910;53.248;-6.134;2022-10-31T00:49:07;24.40;;;3.28;;
38683;SDS011;24910;53.248;-6.134;2022-10-31T00:51:36;20.05;;;2.88;;
38683;SDS011;24910;53.248;-6.134;2022-10-31T00:54:05;22.25;;;2.88;;
38683;SDS011;24910;53.248;-6.134;2022-10-31T00:56:36;20.23;;;2.78;;
38683;SDS011;24910;53.248;-6.134;2022-10-31T00:59:05;23.63;;;2.90;;
38683;SDS011;24910;53.248;-6.134;2022-10-31T01:01:36;20.45;;;3.15;;
38683;SDS011;24910;53.248;-6.134;2022-10-31T01:04:05;20.67;;;2.80;;
38683;SDS011;24910;53.248;-6.134;2022-10-31T01:06:34;18.50;;;3.10;;
38683;SDS011;24910;53.248;-6.134;2022-10-31T01:09:03;21.77;;;3.05;;
38683;SDS011;24910;53.248;-6.134;2022-10-31T01:11:32;20.48;;;2.80;;
38683;SDS011;24910;53.248;-6.134;2022-10-31T01:14:05;28.48;;;4.10;;
38683;SDS011;24910;53.248;-6.134;2022-10-31T01:16:34;22.48;;;2.85;;
38683;SDS011;24910;53.248;-6.134;2022-10-31T01:19:03;21.52;;;3.13;;
38683;SDS011;24910;53.248;-6.134;2022-10-31T01:21:32;21.45;;;2.30;;
38683;SDS011;24910;53.248;-6.134;2022-10-31T01:24:02;22.90;;;3.00;;
38683;SDS011;24910;53.248;-6.134;2022-10-31T01:26:31;27.75;;;3.00;;
38683;SDS011;24910;53.248;-6.134;2022-10-31T01:29:03;20.15;;;2.55;;
38683;SDS011;24910;53.248;-6.134;2022-10-31T01:31:35;21.20;;;2.58;;
38683;SDS011;24910;53.248;-6.134;2022-10-31T01:34:09;15.00;;;2.55;;
38683;SDS011;24910;53.248;-6.134;2022-10-31T01:36:42;23.90;;;3.30;;
38683;SDS011;24910;53.248;-6.134;2022-10-31T01:39:15;14.52;;;2.50;;
38683;SDS011;24910;53.248;-6.134;2022-10-31T01:41:45;23.70;;;2.80;;
38683;SDS011;24910;53.248;-6.134;2022-10-31T01:47:32;23.15;;;3.45;;
38683;SDS011;24910;53.248;-6.134;2022-10-31T01:50:13;21.63;;;3.13;;
38683;SDS011;24910;53.248;-6.134;2022-10-31T01:52:47;18.23;;;2.70;;
38683;SDS011;24910;53.248;-6.134;2022-10-31T01:55:21;16.02;;;2.60;;
38683;SDS011;24910;53.248;-6.134;2022-10-31T01:57:58;21.45;;;3.10;;
38683;SDS011;24910;53.248;-6.134;2022-10-31T02:00:30;21.42;;;3.05;;
38683;SDS011;24910;53.248;-6.134;2022-10-31T02:03:01;24.40;;;2.72;;
38683;SDS011;24910;53.248;-6.134;2022-10-31T02:05:30;19.92;;;2.60;;
38683;SDS011;24910;53.248;-6.134;2022-10-31T02:08:01;24.23;;;3.15;;
38683;SDS011;24910;53.248;-6.134;2022-10-31T02:10:33;24.85;;;2.60;;
38683;SDS011;24910;53.248;-6.134;2022-10-31T02:13:07;22.95;;;3.13;;
38683;SDS011;24910;53.248;-6.134;2022-10-31T02:15:44;20.02;;;2.85;;
38683;SDS011;24910;53.248;-6.134;2022-10-31T02:20:49;23.00;;;2.88;;
38683;SDS011;24910;53.248;-6.134;2022-10-31T02:23:31;20.38;;;3.33;;
38683;SDS011;24910;53.248;-6.134;2022-10-31T02:29:32;22.83;;;2.88;;
38683;SDS011;24910;53.248;-6.134;2022-10-31T02:32:27;19.27;;;2.80;;
38683;SDS011;24910;53.248;-6.134;2022-10-31T02:35:02;21.90;;;3.63;;
38683;SDS011;24910;53.248;-6.134;2022-10-31T02:37:39;24.52;;;2.83;;
38683;SDS011;24910;53.248;-6.134;2022-10-31T02:40:16;14.20;;;2.83;;
38683;SDS011;24910;53.248;-6.134;2022-10-31T02:43:21;13.25;;;2.30;;
38683;SDS011;24910;53.248;-6.134;2022-10-31T02:45:57;22.90;;;2.97;;
38683;SDS011;24910;53.248;-6.134;2022-10-31T02:48:34;18.83;;;2.63;;
38683;SDS011;24910;53.248;-6.134;2022-10-31T02:51:08;26.75;;;3.13;;
38683;SDS011;24910;53.248;-6.134;2022-10-31T02:56:11;18.92;;;2.65;;
38683;SDS011;24910;53.248;-6.134;2022-10-31T02:58:45;17.52;;;2.58;;
38683;SDS011;24910;53.248;-6.134;2022-10-31T03:01:31;20.75;;;2.95;;
38683;SDS011;24910;53.248;-6.134;2022-10-31T03:07:23;26.00;;;2.90;;
38683;SDS011;24910;53.248;-6.134;2022-10-31T03:10:02;29.20;;;3.17;;
38683;SDS011;24910;53.248;-6.134;2022-10-31T03:12:38;27.67;;;3.22;;
38683;SDS011;24910;53.248;-6.134;2022-10-31T03:15:17;20.40;;;3.22;;
38683;SDS011;24910;53.248;-6.134;2022-10-31T03:17:53;23.58;;;2.80;;
38683;SDS011;24910;53.248;-6.134;2022-10-31T03:20:30;17.52;;;2.97;;
38683;SDS011;24910;53.248;-6.134;2022-10-31T03:23:06;20.48;;;3.08;;
38683;SDS011;24910;53.248;-6.134;2022-10-31T03:25:39;23.42;;;3.00;;
38683;SDS011;24910;53.248;-6.134;2022-10-31T03:28:10;29.60;;;3.30;;
38683;SDS011;24910;53.248;-6.134;2022-10-31T03:30:41;17.42;;;3.15;;
38683;SDS011;24910;53.248;-6.134;2022-10-31T03:33:13;26.38;;;3.15;;
38683;SDS011;24910;53.248;-6.134;2022-10-31T03:35:50;26.80;;;3.42;;
38683;SDS011;24910;53.248;-6.134;2022-10-31T03:38:25;31.85;;;4.30;;
38683;SDS011;24910;53.248;-6.134;2022-10-31T03:43:26;23.50;;;3.13;;
38683;SDS011;24910;53.248;-6.134;2022-10-31T03:46:01;24.92;;;2.75;;
38683;SDS011;24910;53.248;-6.134;2022-10-31T03:48:31;25.88;;;3.95;;
38683;SDS011;24910;53.248;-6.134;2022-10-31T03:51:04;22.08;;;4.13;;
38683;SDS011;24910;53.248;-6.134;2022-10-31T03:53:45;25.98;;;3.42;;
38683;SDS011;24910;53.248;-6.134;2022-10-31T03:56:22;27.15;;;3.70;;
38683;SDS011;24910;53.248;-6.134;2022-10-31T03:58:59;22.85;;;3.35;;
38683;SDS011;24910;53.248;-6.134;2022-10-31T04:01:34;21.63;;;2.70;;
38683;SDS011;24910;53.248;-6.134;2022-10-31T04:04:08;27.05;;;3.17;;
38683;SDS011;24910;53.248;-6.134;2022-10-31T04:06:38;17.92;;;3.10;;
38683;SDS011;24910;53.248;-6.134;2022-10-31T04:09:12;25.40;;;3.25;;
38683;SDS011;24910;53.248;-6.134;2022-10-31T04:11:44;17.63;;;2.60;;
38683;SDS011;24910;53.248;-6.134;2022-10-31T04:14:35;25.42;;;2.75;;
38683;SDS011;24910;53.248;-6.134;2022-10-31T04:17:08;21.75;;;2.90;;
38683;SDS011;24910;53.248;-6.134;2022-10-31T04:19:42;25.20;;;4.15;;
38683;SDS011;24910;53.248;-6.134;2022-10-31T04:22:12;16.92;;;2.85;;
38683;SDS011;24910;53.248;-6.134;2022-10-31T04:24:42;19.02;;;2.58;;
38683;SDS011;24910;53.248;-6.134;2022-10-31T04:27:14;19.35;;;2.65;;
38683;SDS011;24910;53.248;-6.134;2022-10-31T04:29:43;12.95;;;2.35;;
38683;SDS011;24910;53.248;-6.134;2022-10-31T04:32:17;17.42;;;2.97;;
38683;SDS011;24910;53.248;-6.134;2022-10-31T04:34:46;24.27;;;2.92;;
38683;SDS011;24910;53.248;-6.134;2022-10-31T04:37:15;18.58;;;2.80;;
38683;SDS011;24910;53.248;-6.134;2022-10-31T04:39:45;19.70;;;2.55;;
38683;SDS011;24910;53.248;-6.134;2022-10-31T04:42:33;16.80;;;2.80;;
38683;SDS011;24910;53.248;-6.134;2022-10-31T04:45:04;15.30;;;2.25;;
38683;SDS011;24910;53.248;-6.134;2022-10-31T04:47:35;16.23;;;2.08;;
38683;SDS011;24910;53.248;-6.134;2022-10-31T04:50:05;18.70;;;2.20;;
38683;SDS011;24910;53.248;-6.134;2022-10-31T04:52:38;16.52;;;2.53;;
38683;SDS011;24910;53.248;-6.134;2022-10-31T04:55:10;17.48;;;2.80;;
38683;SDS011;24910;53.248;-6.134;2022-10-31T04:57:59;24.70;;;3.13;;
38683;SDS011;24910;53.248;-6.134;2022-10-31T05:00:29;20.35;;;2.72;;
38683;SDS011;24910;53.248;-6.134;2022-10-31T05:02:58;28.65;;;3.80;;
38683;SDS011;24910;53.248;-6.134;2022-10-31T05:05:28;29.45;;;3.22;;
38683;SDS011;24910;53.248;-6.134;2022-10-31T05:08:01;25.70;;;2.92;;
38683;SDS011;24910;53.248;-6.134;2022-10-31T05:10:33;25.85;;;3.95;;
38683;SDS011;24910;53.248;-6.134;2022-10-31T05:13:03;23.73;;;3.05;;
38683;SDS011;24910;53.248;-6.134;2022-10-31T05:15:51;21.02;;;3.53;;
38683;SDS011;24910;53.248;-6.134;2022-10-31T05:18:23;28.98;;;3.50;;
38683;SDS011;24910;53.248;-6.134;2022-10-31T05:20:55;20.60;;;2.70;;
38683;SDS011;24910;53.248;-6.134;2022-10-31T05:23:46;19.80;;;3.10;;
38683;SDS011;24910;53.248;-6.134;2022-10-31T05:26:18;30.55;;;4.28;;
38683;SDS011;24910;53.248;-6.134;2022-10-31T05:28:47;26.92;;;3.35;;
38683;SDS011;24910;53.248;-6.134;2022-10-31T05:31:16;29.60;;;3.58;;
38683;SDS011;24910;53.248;-6.134;2022-10-31T05:33:45;26.13;;;3.72;;
38683;SDS011;24910;53.248;-6.134;2022-10-31T05:36:17;19.75;;;3.22;;
38683;SDS011;24910;53.248;-6.134;2022-10-31T05:39:12;17.88;;;2.58;;
38683;SDS011;24910;53.248;-6.134;2022-10-31T05:41:47;19.70;;;2.53;;
38683;SDS011;24910;53.248;-6.134;2022-10-31T05:44:22;26.50;;;3.47;;
38683;SDS011;24910;53.248;-6.134;2022-10-31T05:47:17;24.85;;;3.28;;
38683;SDS011;24910;53.248;-6.134;2022-10-31T05:50:09;17.33;;;2.90;;
38683;SDS011;24910;53.248;-6.134;2022-10-31T05:52:46;18.60;;;2.75;;
38683;SDS011;24910;53.248;-6.134;2022-10-31T05:55:29;23.83;;;3.40;;
38683;SDS011;24910;53.248;-6.134;2022-10-31T05:58:05;26.92;;;3.33;;
38683;SDS011;24910;53.248;-6.134;2022-10-31T06:00:36;26.83;;;3.80;;
38683;SDS011;24910;53.248;-6.134;2022-10-31T06:03:08;21.77;;;3.13;;
38683;SDS011;24910;53.248;-6.134;2022-10-31T06:08:24;17.83;;;2.85;;
38683;SDS011;24910;53.248;-6.134;2022-10-31T06:10:55;20.00;;;2.78;;
38683;SDS011;24910;53.248;-6.134;2022-10-31T06:13:51;18.75;;;2.92;;
38683;SDS011;24910;53.248;-6.134;2022-10-31T06:16:24;23.20;;;3.03;;
38683;SDS011;24910;53.248;-6.134;2022-10-31T06:18:56;18.92;;;3.17;;
38683;SDS011;24910;53.248;-6.134;2022-10-31T06:21:25;18.92;;;2.55;;
38683;SDS011;24910;53.248;-6.134;2022-10-31T06:23:55;24.15;;;2.85;;
38683;SDS011;24910;53.248;-6.134;2022-10-31T06:26:44;28.55;;;3.28;;
38683;SDS011;24910;53.248;-6.134;2022-10-31T06:29:16;24.17;;;3.00;;
38683;SDS011;24910;53.248;-6.134;2022-10-31T06:32:05;14.60;;;2.93;;
38683;SDS011;24910;53.248;-6.134;2022-10-31T06:34:41;20.83;;;3.22;;
38683;SDS011;24910;53.248;-6.134;2022-10-31T06:37:11;21.23;;;3.08;;
38683;SDS011;24910;53.248;-6.134;2022-10-31T06:39:44;20.63;;;3.08;;
38683;SDS011;24910;53.248;-6.134;2022-10-31T06:42:15;19.88;;;3.13;;
38683;SDS011;24910;53.248;-6.134;2022-10-31T06:44:45;13.10;;;2.53;;
38683;SDS011;24910;53.248;-6.134;2022-10-31T06:47:33;25.42;;;3.22;;
38683;SDS011;24910;53.248;-6.134;2022-10-31T06:50:26;18.65;;;2.67;;
38683;SDS011;24910;53.248;-6.134;2022-10-31T06:52:55;18.80;;;2.97;;
38683;SDS011;24910;53.248;-6.134;2022-10-31T06:55:26;16.75;;;2.75;;
38683;SDS011;24910;53.248;-6.134;2022-10-31T06:57:56;17.65;;;2.42;;
38683;SDS011;24910;53.248;-6.134;2022-10-31T07:00:32;15.65;;;2.78;;
38683;SDS011;24910;53.248;-6.134;2022-10-31T07:03:05;19.92;;;3.08;;
38683;SDS011;24910;53.248;-6.134;2022-10-31T07:05:38;21.35;;;3.20;;
38683;SDS011;24910;53.248;-6.134;2022-10-31T07:08:09;24.30;;;3.42;;
38683;SDS011;24910;53.248;-6.134;2022-10-31T07:10:39;18.92;;;2.60;;
38683;SDS011;24910;53.248;-6.134;2022-10-31T07:13:10;21.35;;;3.70;;
38683;SDS011;24910;53.248;-6.134;2022-10-31T07:15:50;17.73;;;2.40;;
38683;SDS011;24910;53.248;-6.134;2022-10-31T07:18:20;16.20;;;2.65;;
38683;SDS011;24910;53.248;-6.134;2022-10-31T07:20:49;24.02;;;3.38;;
38683;SDS011;24910;53.248;-6.134;2022-10-31T07:23:20;31.70;;;3.63;;
38683;SDS011;24910;53.248;-6.134;2022-10-31T07:26:09;23.33;;;2.97;;
38683;SDS011;24910;53.248;-6.134;2022-10-31T07:28:45;27.38;;;3.83;;
38683;SDS011;24910;53.248;-6.134;2022-10-31T07:31:20;28.42;;;3.10;;
38683;SDS011;24910;53.248;-6.134;2022-10-31T07:33:51;23.95;;;3.50;;
38683;SDS011;24910;53.248;-6.134;2022-10-31T07:36:26;32.03;;;4.03;;
38683;SDS011;24910;53.248;-6.134;2022-10-31T07:39:00;29.55;;;3.78;;
38683;SDS011;24910;53.248;-6.134;2022-10-31T07:41:32;29.75;;;3.50;;
38683;SDS011;24910;53.248;-6.134;2022-10-31T07:44:02;19.33;;;2.97;;
38683;SDS011;24910;53.248;-6.134;2022-10-31T07:46:51;19.33;;;3.53;;
38683;SDS011;24910;53.248;-6.134;2022-10-31T07:49:38;16.83;;;2.80;;
38683;SDS011;24910;53.248;-6.134;2022-10-31T07:52:40;12.10;;;2.28;;
38683;SDS011;24910;53.248;-6.134;2022-10-31T07:55:28;16.10;;;2.00;;
38683;SDS011;24910;53.248;-6.134;2022-10-31T07:57:58;17.63;;;2.67;;
38683;SDS011;24910;53.248;-6.134;2022-10-31T08:00:29;12.30;;;2.22;;
38683;SDS011;24910;53.248;-6.134;2022-10-31T08:03:01;20.23;;;3.03;;
38683;SDS011;24910;53.248;-6.134;2022-10-31T08:05:50;15.18;;;2.38;;
38683;SDS011;24910;53.248;-6.134;2022-10-31T08:08:39;17.02;;;2.58;;
38683;SDS011;24910;53.248;-6.134;2022-10-31T08:11:09;23.67;;;3.38;;
38683;SDS011;24910;53.248;-6.134;2022-10-31T08:13:38;30.02;;;3.85;;
38683;SDS011;24910;53.248;-6.134;2022-10-31T08:16:09;21.25;;;3.00;;
38683;SDS011;24910;53.248;-6.134;2022-10-31T08:18:50;21.48;;;2.75;;
38683;SDS011;24910;53.248;-6.134;2022-10-31T08:21:20;21.25;;;3.10;;
38683;SDS011;24910;53.248;-6.134;2022-10-31T08:23:49;26.15;;;3.50;;
38683;SDS011;24910;53.248;-6.134;2022-10-31T08:26:21;21.25;;;2.88;;
38683;SDS011;24910;53.248;-6.134;2022-10-31T08:28:52;23.77;;;3.92;;
38683;SDS011;24910;53.248;-6.134;2022-10-31T08:31:24;17.92;;;3.03;;
38683;SDS011;24910;53.248;-6.134;2022-10-31T08:34:20;20.20;;;2.78;;
38683;SDS011;24910;53.248;-6.134;2022-10-31T08:36:49;24.50;;;2.80;;
38683;SDS011;24910;53.248;-6.134;2022-10-31T08:39:30;18.40;;;2.75;;
38683;SDS011;24910;53.248;-6.134;2022-10-31T08:41:59;24.52;;;4.18;;
38683;SDS011;24910;53.248;-6.134;2022-10-31T08:44:28;30.17;;;3.40;;
38683;SDS011;24910;53.248;-6.134;2022-10-31T08:46:57;25.35;;;3.42;;
38683;SDS011;24910;53.248;-6.134;2022-10-31T08:49:33;19.27;;;3.92;;
38683;SDS011;24910;53.248;-6.134;2022-10-31T08:52:02;28.23;;;3.53;;
38683;SDS011;24910;53.248;-6.134;2022-10-31T08:54:39;29.08;;;3.30;;
38683;SDS011;24910;53.248;-6.134;2022-10-31T08:57:26;18.17;;;2.92;;
38683;SDS011;24910;53.248;-6.134;2022-10-31T09:02:54;25.60;;;3.55;;
38683;SDS011;24910;53.248;-6.134;2022-10-31T09:05:26;21.15;;;3.03;;
38683;SDS011;24910;53.248;-6.134;2022-10-31T09:07:56;18.17;;;3.50;;
38683;SDS011;24910;53.248;-6.134;2022-10-31T09:10:27;24.17;;;3.78;;
38683;SDS011;24910;53.248;-6.134;2022-10-31T09:12:58;22.85;;;3.33;;
38683;SDS011;24910;53.248;-6.134;2022-10-31T09:15:49;25.45;;;3.30;;
38683;SDS011;24910;53.248;-6.134;2022-10-31T09:18:22;18.17;;;3.17;;
38683;SDS011;24910;53.248;-6.134;2022-10-31T09:20:59;23.80;;;3.72;;
38683;SDS011;24910;53.248;-6.134;2022-10-31T09:23:30;28.10;;;4.20;;
38683;SDS011;24910;53.248;-6.134;2022-10-31T09:26:00;29.73;;;4.28;;
38683;SDS011;24910;53.248;-6.134;2022-10-31T09:28:36;27.63;;;3.67;;
38683;SDS011;24910;53.248;-6.134;2022-10-31T09:31:12;24.60;;;4.15;;
38683;SDS011;24910;53.248;-6.134;2022-10-31T09:33:52;32.40;;;3.10;;
38683;SDS011;24910;53.248;-6.134;2022-10-31T09:36:46;27.77;;;3.45;;
38683;SDS011;24910;53.248;-6.134;2022-10-31T09:39:20;23.02;;;3.42;;
38683;SDS011;24910;53.248;-6.134;2022-10-31T09:42:00;32.17;;;4.80;;
38683;SDS011;24910;53.248;-6.134;2022-10-31T09:44:39;23.00;;;3.40;;
38683;SDS011;24910;53.248;-6.134;2022-10-31T09:47:33;24.58;;;3.20;;
38683;SDS011;24910;53.248;-6.134;2022-10-31T09:50:28;23.70;;;3.42;;
38683;SDS011;24910;53.248;-6.134;2022-10-31T09:53:22;26.42;;;4.13;;
38683;SDS011;24910;53.248;-6.134;2022-10-31T09:55:54;30.63;;;3.95;;
38683;SDS011;24910;53.248;-6.134;2022-10-31T09:58:25;26.70;;;3.50;;
38683;SDS011;24910;53.248;-6.134;2022-10-31T10:00:56;21.35;;;3.65;;
38683;SDS011;24910;53.248;-6.134;2022-10-31T10:03:29;26.15;;;3.28;;
38683;SDS011;24910;53.248;-6.134;2022-10-31T10:06:24;26.85;;;3.72;;
38683;SDS011;24910;53.248;-6.134;2022-10-31T10:09:15;33.55;;;3.30;;
38683;SDS011;24910;53.248;-6.134;2022-10-31T10:12:24;23.08;;;4.05;;
38683;SDS011;24910;53.248;-6.134;2022-10-31T10:18:15;24.20;;;3.92;;
38683;SDS011;24910;53.248;-6.134;2022-10-31T10:20:56;19.58;;;3.15;;
38683;SDS011;24910;53.248;-6.134;2022-10-31T10:23:40;23.55;;;3.50;;
38683;SDS011;24910;53.248;-6.134;2022-10-31T10:26:18;25.17;;;3.22;;
38683;SDS011;24910;53.248;-6.134;2022-10-31T10:28:49;23.33;;;4.63;;
38683;SDS011;24910;53.248;-6.134;2022-10-31T10:31:23;19.90;;;3.58;;
38683;SDS011;24910;53.248;-6.134;2022-10-31T10:34:00;23.55;;;3.97;;
38683;SDS011;24910;53.248;-6.134;2022-10-31T10:36:36;25.65;;;3.80;;
38683;SDS011;24910;53.248;-6.134;2022-10-31T10:39:11;29.00;;;3.92;;
38683;SDS011;24910;53.248;-6.134;2022-10-31T10:41:48;24.52;;;4.30;;
38683;SDS011;24910;53.248;-6.134;2022-10-31T10:44:36;26.80;;;4.18;;
38683;SDS011;24910;53.248;-6.134;2022-10-31T10:47:24;23.27;;;3.88;;
38683;SDS011;24910;53.248;-6.134;2022-10-31T10:50:09;26.70;;;3.95;;
38683;SDS011;24910;53.248;-6.134;2022-10-31T10:52:45;30.40;;;4.10;;
38683;SDS011;24910;53.248;-6.134;2022-10-31T10:55:24;23.23;;;3.83;;
38683;SDS011;24910;53.248;-6.134;2022-10-31T10:58:03;28.15;;;4.03;;
38683;SDS011;24910;53.248;-6.134;2022-10-31T11:00:38;25.70;;;4.32;;
38683;SDS011;24910;53.248;-6.134;2022-10-31T11:03:12;20.02;;;3.53;;
38683;SDS011;24910;53.248;-6.134;2022-10-31T11:05:43;27.92;;;4.28;;
38683;SDS011;24910;53.248;-6.134;2022-10-31T11:08:23;24.17;;;4.30;;
38683;SDS011;24910;53.248;-6.134;2022-10-31T11:10:58;23.60;;;3.70;;
38683;SDS011;24910;53.248;-6.134;2022-10-31T11:13:30;17.60;;;3.13;;
38683;SDS011;24910;53.248;-6.134;2022-10-31T11:16:02;19.90;;;3.13;;
38683;SDS011;24910;53.248;-6.134;2022-10-31T11:18:32;21.75;;;3.38;;
38683;SDS011;24910;53.248;-6.134;2022-10-31T11:21:05;17.98;;;3.08;;
38683;SDS011;24910;53.248;-6.134;2022-10-31T11:23:35;21.42;;;3.25;;
38683;SDS011;24910;53.248;-6.134;2022-10-31T11:26:05;23.75;;;3.80;;
38683;SDS011;24910;53.248;-6.134;2022-10-31T11:28:38;24.08;;;3.78;;
38683;SDS011;24910;53.248;-6.134;2022-10-31T11:33:44;17.98;;;3.70;;
38683;SDS011;24910;53.248;-6.134;2022-10-31T11:36:24;20.90;;;3.58;;
38683;SDS011;24910;53.248;-6.134;2022-10-31T11:38:55;22.30;;;3.83;;
38683;SDS011;24910;53.248;-6.134;2022-10-31T11:41:27;22.45;;;3.60;;
38683;SDS011;24910;53.248;-6.134;2022-10-31T11:44:00;18.92;;;3.40;;
38683;SDS011;24910;53.248;-6.134;2022-10-31T11:46:33;21.85;;;3.22;;
38683;SDS011;24910;53.248;-6.134;2022-10-31T11:49:04;21.60;;;3.90;;
38683;SDS011;24910;53.248;-6.134;2022-10-31T11:51:50;20.48;;;3.30;;
38683;SDS011;24910;53.248;-6.134;2022-10-31T11:54:24;24.27;;;3.67;;
38683;SDS011;24910;53.248;-6.134;2022-10-31T11:56:55;18.88;;;2.70;;
38683;SDS011;24910;53.248;-6.134;2022-10-31T11:59:27;15.85;;;3.13;;
38683;SDS011;24910;53.248;-6.134;2022-10-31T12:01:58;21.58;;;3.42;;
38683;SDS011;24910;53.248;-6.134;2022-10-31T12:04:42;24.25;;;3.45;;
38683;SDS011;24910;53.248;-6.134;2022-10-31T12:07:17;23.77;;;3.90;;
38683;SDS011;24910;53.248;-6.134;2022-10-31T12:09:46;20.52;;;3.45;;
38683;SDS011;24910;53.248;-6.134;2022-10-31T12:12:32;24.40;;;3.90;;
38683;SDS011;24910;53.248;-6.134;2022-10-31T12:15:18;31.00;;;3.88;;
38683;SDS011;24910;53.248;-6.134;2022-10-31T12:18:17;22.92;;;4.30;;
38683;SDS011;24910;53.248;-6.134;2022-10-31T12:21:08;24.45;;;3.80;;
38683;SDS011;24910;53.248;-6.134;2022-10-31T12:23:52;23.65;;;3.88;;
38683;SDS011;24910;53.248;-6.134;2022-10-31T12:26:32;26.42;;;4.03;;
38683;SDS011;24910;53.248;-6.134;2022-10-31T12:29:20;23.88;;;4.18;;
38683;SDS011;24910;53.248;-6.134;2022-10-31T12:32:14;23.75;;;4.22;;
38683;SDS011;24910;53.248;-6.134;2022-10-31T12:34:56;19.83;;;3.67;;
38683;SDS011;24910;53.248;-6.134;2022-10-31T12:37:41;27.83;;;3.85;;
38683;SDS011;24910;53.248;-6.134;2022-10-31T12:40:26;20.05;;;4.05;;
38683;SDS011;24910;53.248;-6.134;2022-10-31T12:43:20;21.50;;;4.22;;
38683;SDS011;24910;53.248;-6.134;2022-10-31T12:46:07;29.27;;;5.17;;
38683;SDS011;24910;53.248;-6.134;2022-10-31T12:48:45;21.42;;;3.97;;
38683;SDS011;24910;53.248;-6.134;2022-10-31T12:51:38;27.77;;;4.32;;
38683;SDS011;24910;53.248;-6.134;2022-10-31T12:54:17;25.35;;;4.38;;
38683;SDS011;24910;53.248;-6.134;2022-10-31T12:56:57;22.23;;;3.72;;
38683;SDS011;24910;53.248;-6.134;2022-10-31T12:59:34;29.95;;;4.38;;
38683;SDS011;24910;53.248;-6.134;2022-10-31T13:02:09;26.45;;;4.20;;
38683;SDS011;24910;53.248;-6.134;2022-10-31T13:04:48;27.77;;;4.38;;
38683;SDS011;24910;53.248;-6.134;2022-10-31T13:07:25;25.33;;;4.93;;
38683;SDS011;24910;53.248;-6.134;2022-10-31T13:10:00;20.20;;;3.70;;
38683;SDS011;24910;53.248;-6.134;2022-10-31T13:12:34;18.38;;;4.15;;
38683;SDS011;24910;53.248;-6.134;2022-10-31T13:15:05;20.50;;;4.95;;
38683;SDS011;24910;53.248;-6.134;2022-10-31T13:17:43;25.10;;;3.55;;
38683;SDS011;24910;53.248;-6.134;2022-10-31T13:20:24;24.70;;;4.00;;
38683;SDS011;24910;53.248;-6.134;2022-10-31T13:22:59;26.67;;;3.58;;
38683;SDS011;24910;53.248;-6.134;2022-10-31T13:25:54;17.40;;;3.33;;
38683;SDS011;24910;53.248;-6.134;2022-10-31T13:28:26;15.30;;;3.38;;
38683;SDS011;24910;53.248;-6.134;2022-10-31T13:31:03;20.15;;;4.10;;
38683;SDS011;24910;53.248;-6.134;2022-10-31T13:33:33;19.85;;;4.32;;
38683;SDS011;24910;53.248;-6.134;2022-10-31T13:36:15;21.77;;;4.82;;
38683;SDS011;24910;53.248;-6.134;2022-10-31T13:38:56;18.42;;;4.20;;
38683;SDS011;24910;53.248;-6.134;2022-10-31T13:41:37;21.00;;;4.55;;
38683;SDS011;24910;53.248;-6.134;2022-10-31T13:44:13;25.20;;;4.22;;
38683;SDS011;24910;53.248;-6.134;2022-10-31T13:46:44;25.80;;;4.20;;
38683;SDS011;24910;53.248;-6.134;2022-10-31T13:49:21;23.70;;;4.50;;
38683;SDS011;24910;53.248;-6.134;2022-10-31T13:52:12;22.17;;;3.83;;
38683;SDS011;24910;53.248;-6.134;2022-10-31T13:54:46;23.67;;;3.63;;
38683;SDS011;24910;53.248;-6.134;2022-10-31T13:57:25;28.27;;;4.50;;
38683;SDS011;24910;53.248;-6.134;2022-10-31T14:00:03;22.17;;;4.05;;
38683;SDS011;24910;53.248;-6.134;2022-10-31T14:02:43;22.00;;;3.55;;
38683;SDS011;24910;53.248;-6.134;2022-10-31T14:05:21;22.52;;;3.65;;
38683;SDS011;24910;53.248;-6.134;2022-10-31T14:07:54;26.67;;;4.10;;
38683;SDS011;24910;53.248;-6.134;2022-10-31T14:10:26;22.45;;;4.65;;
38683;SDS011;24910;53.248;-6.134;2022-10-31T14:13:03;22.63;;;4.75;;
38683;SDS011;24910;53.248;-6.134;2022-10-31T14:15:36;28.05;;;5.20;;
38683;SDS011;24910;53.248;-6.134;2022-10-31T14:18:16;27.33;;;6.80;;
38683;SDS011;24910;53.248;-6.134;2022-10-31T14:20:51;34.65;;;5.55;;
38683;SDS011;24910;53.248;-6.134;2022-10-31T14:23:36;30.70;;;6.45;;
38683;SDS011;24910;53.248;-6.134;2022-10-31T14:26:20;32.20;;;6.13;;
38683;SDS011;24910;53.248;-6.134;2022-10-31T14:29:00;22.17;;;3.92;;
38683;SDS011;24910;53.248;-6.134;2022-10-31T14:31:55;28.77;;;4.63;;
38683;SDS011;24910;53.248;-6.134;2022-10-31T14:34:38;31.55;;;7.85;;
38683;SDS011;24910;53.248;-6.134;2022-10-31T14:37:14;28.25;;;6.60;;
38683;SDS011;24910;53.248;-6.134;2022-10-31T14:39:57;33.45;;;7.30;;
38683;SDS011;24910;53.248;-6.134;2022-10-31T14:42:40;36.20;;;11.90;;
38683;SDS011;24910;53.248;-6.134;2022-10-31T14:45:31;38.17;;;11.55;;
38683;SDS011;24910;53.248;-6.134;2022-10-31T14:48:15;35.42;;;9.55;;
38683;SDS011;24910;53.248;-6.134;2022-10-31T14:51:03;33.13;;;6.75;;
38683;SDS011;24910;53.248;-6.134;2022-10-31T14:53:41;24.80;;;6.30;;
38683;SDS011;24910;53.248;-6.134;2022-10-31T14:56:19;38.22;;;9.45;;
38683;SDS011;24910;53.248;-6.134;2022-10-31T14:58:51;56.00;;;17.70;;
38683;SDS011;24910;53.248;-6.134;2022-10-31T15:01:24;37.92;;;8.38;;
38683;SDS011;24910;53.248;-6.134;2022-10-31T15:03:57;34.33;;;9.20;;
38683;SDS011;24910;53.248;-6.134;2022-10-31T15:06:51;35.83;;;10.55;;
38683;SDS011;24910;53.248;-6.134;2022-10-31T15:09:27;27.52;;;5.63;;
38683;SDS011;24910;53.248;-6.134;2022-10-31T15:14:28;34.20;;;7.80;;
38683;SDS011;24910;53.248;-6.134;2022-10-31T15:17:01;25.92;;;5.10;;
38683;SDS011;24910;53.248;-6.134;2022-10-31T15:19:32;23.60;;;4.90;;
38683;SDS011;24910;53.248;-6.134;2022-10-31T15:22:03;24.83;;;5.38;;
38683;SDS011;24910;53.248;-6.134;2022-10-31T15:24:34;16.35;;;3.63;;
38683;SDS011;24910;53.248;-6.134;2022-10-31T15:27:07;21.90;;;3.50;;
38683;SDS011;24910;53.248;-6.134;2022-10-31T15:29:50;9.40;;;2.00;;
38683;SDS011;24910;53.248;-6.134;2022-10-31T15:32:20;9.85;;;1.77;;
38683;SDS011;24910;53.248;-6.134;2022-10-31T15:34:51;15.95;;;2.40;;
38683;SDS011;24910;53.248;-6.134;2022-10-31T15:37:22;9.35;;;1.95;;
38683;SDS011;24910;53.248;-6.134;2022-10-31T15:39:52;12.15;;;2.70;;
38683;SDS011;24910;53.248;-6.134;2022-10-31T15:42:23;14.50;;;2.80;;
38683;SDS011;24910;53.248;-6.134;2022-10-31T15:44:56;16.13;;;3.60;;